Time;durP1;ratioP1;P1;durP2;ratioP2;P2;SDS_P1;SDS_P2;PMS_P1;PMS_P2;Temp;Humidity;BMP_temperature;BMP_pressure;BME280_temperature;BME280_humidity;BME280_pressure;Samples;Min_cycle;Max_cycle;Signal;HPM_P1;HPM_P2
2022/10/06 00:01:31;;;;;;;47.63;38.30;;;25.40;99.90;;;;;;5074478;28;20522;-66
2022/10/06 00:03:58;;;;;;;47.60;39.72;;;25.40;99.90;;;;;;5074437;28;20063;-66
2022/10/06 00:06:24;;;;;;;45.03;39.28;;;25.40;99.90;;;;;;5057327;28;20025;-69
2022/10/06 00:08:51;;;;;;;47.95;40.72;;;25.50;99.90;;;;;;5054197;28;20036;-69
2022/10/06 00:11:17;;;;;;;47.47;41.88;;;25.50;99.90;;;;;;5054317;28;20021;-68
2022/10/06 00:13:44;;;;;;;67.32;59.17;;;25.50;99.90;;;;;;5067386;28;20021;-69
2022/10/06 00:16:21;;;;;;;48.25;43.08;;;25.50;99.90;;;;;;5074217;28;20016;-69
2022/10/06 00:18:48;;;;;;;67.28;55.65;;;25.50;99.90;;;;;;5072426;28;20021;-69
2022/10/06 00:21:15;;;;;;;79.75;69.03;;;25.50;99.90;;;;;;5054204;28;20027;-68
2022/10/06 00:23:41;;;;;;;86.75;71.30;;;25.50;99.90;;;;;;5063288;28;20024;-69
2022/10/06 00:26:15;;;;;;;103.95;91.03;;;25.50;99.90;;;;;;5074181;28;20542;-68
2022/10/06 00:28:50;;;;;;;90.13;70.18;;;25.50;99.90;;;;;;5072935;28;20115;-70
2022/10/06 00:31:18;;;;;;;86.50;72.38;;;25.50;99.90;;;;;;5074024;28;20064;-68
2022/10/06 00:33:45;;;;;;;72.13;59.75;;;25.50;99.90;;;;;;5073905;28;20020;-70
2022/10/06 00:36:12;;;;;;;69.47;61.22;;;25.50;99.90;;;;;;5072318;28;20024;-70
2022/10/06 00:38:38;;;;;;;62.33;55.10;;;25.50;99.90;;;;;;5053929;28;20104;-70
2022/10/06 00:41:05;;;;;;;65.95;54.20;;;25.50;99.90;;;;;;5053825;28;20035;-70
2022/10/06 00:43:53;;;;;;;66.75;57.92;;;25.50;99.90;;;;;;5053582;28;20045;-71
2022/10/06 00:46:21;;;;;;;70.80;61.35;;;25.50;99.90;;;;;;5053731;28;20430;-70
2022/10/06 00:48:54;;;;;;;65.70;58.47;;;25.60;99.90;;;;;;5053503;28;20059;-71
2022/10/06 00:51:21;;;;;;;64.55;54.30;;;25.60;99.90;;;;;;5053748;28;20379;-70
2022/10/06 00:53:49;;;;;;;68.10;57.70;;;25.60;99.90;;;;;;5053651;28;20028;-70
2022/10/06 00:56:16;;;;;;;75.32;57.08;;;25.60;99.90;;;;;;5053491;28;20071;-70
2022/10/06 00:58:45;;;;;;;65.45;57.38;;;25.60;99.90;;;;;;5053631;28;20428;-70
2022/10/06 01:01:12;;;;;;;66.40;56.83;;;25.60;99.90;;;;;;5053322;28;20029;-67
2022/10/06 01:03:46;;;;;;;66.13;57.72;;;25.70;99.90;;;;;;5053345;28;20021;-68
2022/10/06 01:06:13;;;;;;;68.22;58.67;;;25.70;99.90;;;;;;5053427;28;20056;-69
2022/10/06 01:08:39;;;;;;;69.35;57.85;;;25.80;99.90;;;;;;5053267;28;20112;-68
2022/10/06 01:11:13;;;;;;;65.25;55.03;;;25.80;99.90;;;;;;5053221;28;20029;-68
2022/10/06 01:13:43;;;;;;;65.53;53.03;;;25.80;99.90;;;;;;5053661;28;20021;-68
2022/10/06 01:16:15;;;;;;;68.68;57.15;;;25.80;99.90;;;;;;5060731;28;20375;-68
2022/10/06 01:18:43;;;;;;;66.00;55.70;;;25.60;99.90;;;;;;5073334;28;20048;-68
2022/10/06 01:21:49;;;;;;;60.97;51.85;;;25.70;99.90;;;;;;5069118;28;20071;-69
2022/10/06 01:24:17;;;;;;;91.30;77.63;;;25.70;99.90;;;;;;5009509;28;20484;-68
2022/10/06 01:26:48;;;;;;;85.45;73.05;;;25.80;99.90;;;;;;5015679;28;20034;-69
2022/10/06 01:29:16;;;;;;;28.85;25.73;;;25.80;99.90;;;;;;5029185;28;20037;-69
2022/10/06 01:31:42;;;;;;;36.17;32.15;;;25.80;99.90;;;;;;5019576;28;20065;-68
2022/10/06 01:34:09;;;;;;;40.17;35.83;;;25.80;99.90;;;;;;5030952;28;20427;-68
2022/10/06 01:36:38;;;;;;;32.45;28.95;;;25.90;99.90;;;;;;5031132;28;20037;-67
2022/10/06 01:39:05;;;;;;;25.88;23.15;;;26.00;99.90;;;;;;5031207;28;20038;-68
2022/10/06 01:41:32;;;;;;;23.65;21.15;;;26.00;99.90;;;;;;5030630;28;20033;-68
2022/10/06 01:43:59;;;;;;;24.77;19.15;;;26.10;99.90;;;;;;5010654;28;20073;-68
2022/10/06 01:46:28;;;;;;;18.10;15.27;;;26.10;99.90;;;;;;5011321;28;20022;-68
2022/10/06 01:48:54;;;;;;;19.20;17.05;;;26.10;99.90;;;;;;5011064;28;20025;-68
2022/10/06 01:51:21;;;;;;;23.65;16.25;;;26.10;99.90;;;;;;5011124;28;20397;-68
2022/10/06 01:53:47;;;;;;;19.35;14.95;;;26.20;99.90;;;;;;5011227;28;20048;-68
2022/10/06 01:56:14;;;;;;;19.67;15.55;;;26.30;99.90;;;;;;5011026;28;20022;-68
2022/10/06 01:58:41;;;;;;;14.93;12.75;;;26.40;99.90;;;;;;5011130;28;20030;-68
2022/10/06 02:01:09;;;;;;;13.07;10.98;;;26.40;99.90;;;;;;5018578;28;20101;-69
2022/10/06 02:03:37;;;;;;;10.27;9.10;;;26.50;99.90;;;;;;5030685;28;20479;-69
2022/10/06 02:06:05;;;;;;;11.48;9.02;;;26.50;99.90;;;;;;5030825;28;20108;-68
2022/10/06 02:08:32;;;;;;;8.65;7.72;;;26.40;99.90;;;;;;5030490;28;20037;-69
2022/10/06 02:11:03;;;;;;;12.65;8.18;;;26.40;99.90;;;;;;5030672;28;20040;-69
2022/10/06 02:13:30;;;;;;;11.20;8.40;;;26.40;99.90;;;;;;5030705;28;20028;-69
2022/10/06 02:15:57;;;;;;;15.13;9.82;;;26.40;99.90;;;;;;5027368;28;20038;-69
2022/10/06 02:18:24;;;;;;;12.43;9.82;;;26.50;99.90;;;;;;5025661;28;20030;-68
2022/10/06 02:20:51;;;;;;;12.50;10.15;;;26.50;99.90;;;;;;5059459;28;20040;-69
2022/10/06 02:23:17;;;;;;;13.45;10.75;;;26.60;99.90;;;;;;5070812;28;20025;-67
2022/10/06 02:25:44;;;;;;;13.75;10.07;;;26.60;99.90;;;;;;5071607;28;20479;-68
2022/10/06 02:28:10;;;;;;;11.25;10.05;;;26.70;99.90;;;;;;5072024;28;20475;-70
2022/10/06 02:30:37;;;;;;;17.23;11.45;;;26.80;99.90;;;;;;5072144;28;20103;-68
2022/10/06 02:33:04;;;;;;;18.00;13.25;;;26.90;99.90;;;;;;5072424;28;20024;-68
2022/10/06 02:35:30;;;;;;;19.27;14.23;;;26.90;99.90;;;;;;5072544;28;20063;-68
2022/10/06 02:37:57;;;;;;;13.63;9.65;;;27.00;99.90;;;;;;5072285;28;20446;-68
2022/10/06 02:40:23;;;;;;;16.45;10.82;;;27.00;99.90;;;;;;5072257;28;20104;-69
2022/10/06 02:42:50;;;;;;;34.65;11.10;;;27.10;99.90;;;;;;5072298;28;20020;-69
2022/10/06 02:45:17;;;;;;;16.45;11.77;;;27.20;99.90;;;;;;5072057;28;20044;-68
2022/10/06 02:47:43;;;;;;;14.60;9.65;;;27.20;99.90;;;;;;5072301;28;20009;-69
2022/10/06 02:50:10;;;;;;;318.55;218.43;;;27.20;99.90;;;;;;5072112;28;20033;-68
2022/10/06 02:52:39;;;;;;;17.73;12.88;;;27.20;99.90;;;;;;5073780;28;20211;-68
2022/10/06 02:55:07;;;;;;;8.55;6.63;;;27.30;99.90;;;;;;5075646;28;20017;-69
2022/10/06 02:57:34;;;;;;;10.65;7.00;;;27.40;99.90;;;;;;5075871;28;20028;-67
2022/10/06 03:00:00;;;;;;;9.75;7.28;;;27.30;99.90;;;;;;5075545;28;20017;-68
2022/10/06 03:02:29;;;;;;;8.57;7.68;;;27.40;99.90;;;;;;5075674;28;20035;-67
2022/10/06 03:04:56;;;;;;;10.05;7.75;;;27.40;99.90;;;;;;5075561;28;20540;-68
2022/10/06 03:07:23;;;;;;;11.00;7.88;;;27.50;99.90;;;;;;5075768;28;20111;-68
2022/10/06 03:09:49;;;;;;;11.93;8.75;;;27.60;99.90;;;;;;5075373;28;20082;-67
2022/10/06 03:12:16;;;;;;;11.82;8.65;;;27.60;99.90;;;;;;5075621;28;20048;-67
2022/10/06 03:14:42;;;;;;;15.25;8.63;;;27.50;99.90;;;;;;5075260;28;20021;-68
2022/10/06 03:17:09;;;;;;;10.85;8.50;;;27.50;99.90;;;;;;5075478;28;20024;-68
2022/10/06 03:19:36;;;;;;;12.05;8.80;;;27.50;99.90;;;;;;5075332;28;20032;-68
2022/10/06 03:22:04;;;;;;;8.70;7.80;;;27.50;99.90;;;;;;5075547;28;20055;-68
2022/10/06 03:24:31;;;;;;;8.45;7.55;;;27.60;99.90;;;;;;5075134;28;20024;-68
2022/10/06 03:26:57;;;;;;;10.07;8.27;;;27.70;99.90;;;;;;5075164;28;20033;-67
2022/10/06 03:29:24;;;;;;;12.43;8.25;;;27.90;99.90;;;;;;5074869;28;20033;-67
2022/10/06 03:31:50;;;;;;;158.50;115.28;;;27.90;99.90;;;;;;5073371;28;20048;-68
2022/10/06 03:34:17;;;;;;;13.13;9.82;;;28.00;99.90;;;;;;5075168;28;20107;-68
2022/10/06 03:36:44;;;;;;;9.70;8.48;;;28.00;99.90;;;;;;5058739;28;20029;-68
2022/10/06 03:39:10;;;;;;;39.25;28.92;;;28.00;99.90;;;;;;5072627;28;20028;-67
2022/10/06 03:41:38;;;;;;;8.57;7.57;;;28.00;99.90;;;;;;5075095;28;20020;-68
2022/10/06 03:44:05;;;;;;;9.82;8.10;;;28.10;99.90;;;;;;5074464;28;20048;-67
2022/10/06 03:46:33;;;;;;;42.83;25.60;;;28.10;99.90;;;;;;5074625;28;20045;-67
2022/10/06 03:49:00;;;;;;;15.55;8.48;;;28.10;99.90;;;;;;5074650;28;20040;-68
2022/10/06 03:51:34;;;;;;;11.60;7.70;;;28.20;99.90;;;;;;5074575;28;20032;-66
2022/10/06 03:54:01;;;;;;;10.82;6.95;;;28.20;99.90;;;;;;5068701;28;20097;-67
2022/10/06 03:56:31;;;;;;;9.90;8.05;;;28.10;99.90;;;;;;5065582;28;20017;-68
2022/10/06 03:59:04;;;;;;;9.85;8.20;;;28.10;99.90;;;;;;5061698;28;20056;-68
2022/10/06 04:01:36;;;;;;;10.73;7.72;;;28.20;99.90;;;;;;5062604;28;20057;-67
2022/10/06 04:04:04;;;;;;;11.68;8.10;;;28.20;99.90;;;;;;5062324;28;20495;-68
2022/10/06 04:06:33;;;;;;;10.73;7.35;;;28.20;99.90;;;;;;5065414;28;20113;-68
2022/10/06 04:09:00;;;;;;;12.52;8.70;;;28.20;99.90;;;;;;5066595;28;20028;-67
2022/10/06 04:11:33;;;;;;;10.90;8.18;;;28.20;99.90;;;;;;5061508;28;20021;-67
2022/10/06 04:14:03;;;;;;;11.05;8.93;;;28.40;99.90;;;;;;5054230;28;20502;-67
2022/10/06 04:16:32;;;;;;;15.45;9.50;;;28.40;99.90;;;;;;5053640;28;20033;-69
2022/10/06 04:19:00;;;;;;;8.90;7.72;;;28.40;99.90;;;;;;5038805;28;20132;-67
2022/10/06 04:21:29;;;;;;;8.75;7.70;;;28.40;99.90;;;;;;5072204;28;20517;-68
2022/10/06 04:23:57;;;;;;;11.13;9.00;;;28.40;99.90;;;;;;5057971;28;20037;-69
2022/10/06 04:26:26;;;;;;;15.63;10.18;;;28.50;99.90;;;;;;5062685;28;20021;-63
2022/10/06 04:28:53;;;;;;;11.68;9.07;;;28.50;99.90;;;;;;5054260;28;20028;-67
2022/10/06 04:31:25;;;;;;;15.75;10.32;;;28.50;99.90;;;;;;5059465;28;20099;-67
2022/10/06 04:33:54;;;;;;;19.35;10.10;;;28.50;99.90;;;;;;5053054;28;20014;-67
2022/10/06 04:36:24;;;;;;;19.20;12.10;;;28.60;99.90;;;;;;5053016;28;20037;-68
2022/10/06 04:38:55;;;;;;;20.63;14.32;;;28.80;99.90;;;;;;5052881;28;20056;-66
2022/10/06 04:41:23;;;;;;;31.35;15.85;;;29.10;99.90;;;;;;5052747;28;20488;-65
2022/10/06 04:43:51;;;;;;;21.40;14.13;;;29.30;99.90;;;;;;5052646;28;20360;-66
2022/10/06 04:46:19;;;;;;;27.80;17.05;;;29.40;99.90;;;;;;5052426;28;20529;-68
2022/10/06 04:48:46;;;;;;;21.88;14.60;;;29.50;99.90;;;;;;5051994;28;20048;-66
2022/10/06 04:51:15;;;;;;;20.67;13.45;;;29.50;99.90;;;;;;5057559;28;20120;-69
2022/10/06 04:53:44;;;;;;;19.60;15.55;;;29.50;99.90;;;;;;5057930;28;20033;-64
2022/10/06 04:56:16;;;;;;;29.88;20.65;;;29.50;99.90;;;;;;5062300;28;20025;-66
2022/10/06 04:58:46;;;;;;;27.20;21.40;;;29.60;99.90;;;;;;5063101;28;20024;-67
2022/10/06 05:01:18;;;;;;;24.23;20.13;;;29.60;99.90;;;;;;5062075;28;20028;-66
2022/10/06 05:03:47;;;;;;;28.55;21.13;;;29.40;99.90;;;;;;5060642;28;20358;-65
2022/10/06 05:06:19;;;;;;;24.35;18.90;;;29.30;99.90;;;;;;5068045;28;20173;-66
2022/10/06 05:08:49;;;;;;;22.95;17.30;;;29.50;99.90;;;;;;5060704;28;20021;-66
2022/10/06 05:11:16;;;;;;;23.50;19.52;;;29.50;99.90;;;;;;5067672;28;20334;-67
2022/10/06 05:13:42;;;;;;;28.67;20.63;;;29.40;99.90;;;;;;5071923;28;20036;-67
2022/10/06 05:16:13;;;;;;;21.20;18.67;;;29.60;99.90;;;;;;5071069;28;20024;-69
2022/10/06 05:18:40;;;;;;;22.45;18.58;;;29.60;99.90;;;;;;5072274;28;20024;-69
2022/10/06 05:21:10;;;;;;;25.58;20.48;;;29.50;99.90;;;;;;5072851;28;20410;-69
2022/10/06 05:23:40;;;;;;;22.88;19.80;;;29.60;99.90;;;;;;5073080;28;20020;-69
2022/10/06 05:26:07;;;;;;;25.15;20.20;;;29.70;99.90;;;;;;5073259;28;20079;-69
2022/10/06 05:28:34;;;;;;;24.95;21.02;;;29.80;99.90;;;;;;5072985;28;20024;-70
2022/10/06 05:31:03;;;;;;;25.13;20.58;;;29.70;99.90;;;;;;5066985;28;20021;-68
2022/10/06 05:33:33;;;;;;;25.08;21.45;;;29.70;99.90;;;;;;5062679;28;20049;-69
2022/10/06 05:36:02;;;;;;;24.63;21.85;;;29.80;99.90;;;;;;5059618;28;20031;-68
2022/10/06 05:38:29;;;;;;;27.27;21.63;;;30.00;99.90;;;;;;5058154;28;20027;-69
2022/10/06 05:41:03;;;;;;;28.55;23.42;;;30.00;99.90;;;;;;5058427;28;20032;-68
2022/10/06 05:43:33;;;;;;;27.63;21.70;;;30.00;99.90;;;;;;5058068;28;20031;-68
2022/10/06 05:46:02;;;;;;;24.85;21.92;;;30.30;99.90;;;;;;5057722;28;20029;-68
2022/10/06 05:48:29;;;;;;;28.25;22.38;;;30.40;99.90;;;;;;5065534;28;20033;-68
2022/10/06 05:51:08;;;;;;;26.42;22.70;;;30.50;99.90;;;;;;5065715;28;20041;-69
2022/10/06 05:53:36;;;;;;;28.77;23.40;;;30.60;99.90;;;;;;5060473;28;20021;-68
2022/10/06 05:56:06;;;;;;;26.30;21.13;;;30.60;99.90;;;;;;5062063;28;20382;-68
2022/10/06 05:58:34;;;;;;;27.80;21.65;;;30.60;99.90;;;;;;5062396;28;20063;-67
2022/10/06 06:01:23;;;;;;;22.52;19.45;;;30.60;99.90;;;;;;5060433;28;20037;-69
2022/10/06 06:03:53;;;;;;;20.90;18.70;;;30.60;99.90;;;;;;5062244;28;20055;-69
2022/10/06 06:06:26;;;;;;;23.90;20.08;;;30.50;99.90;;;;;;5052888;28;20079;-64
2022/10/06 06:08:57;;;;;;;23.17;19.35;;;30.50;99.90;;;;;;5052557;28;20040;-65
2022/10/06 06:11:26;;;;;;;24.13;19.37;;;30.60;99.90;;;;;;5052750;28;20021;-72
2022/10/06 06:14:04;;;;;;;23.58;20.73;;;30.80;99.90;;;;;;5052281;28;20424;-72
2022/10/06 06:16:32;;;;;;;22.42;19.77;;;30.60;99.90;;;;;;5055044;28;20021;-72
2022/10/06 06:19:00;;;;;;;25.20;22.45;;;30.60;99.90;;;;;;5057179;28;20037;-71
2022/10/06 06:21:28;;;;;;;26.58;20.60;;;30.60;99.90;;;;;;5061622;28;20108;-72
2022/10/06 06:23:54;;;;;;;23.27;20.73;;;30.70;99.90;;;;;;5061934;28;20029;-72
2022/10/06 06:26:25;;;;;;;24.38;20.75;;;30.70;99.90;;;;;;5059913;28;20549;-71
2022/10/06 06:28:53;;;;;;;28.23;23.35;;;30.70;99.90;;;;;;5063881;28;20031;-71
2022/10/06 06:31:25;;;;;;;25.33;20.08;;;30.90;99.90;;;;;;5065855;28;20039;-71
2022/10/06 06:33:55;;;;;;;28.63;22.73;;;30.80;99.90;;;;;;5065452;28;20017;-70
2022/10/06 06:36:27;;;;;;;25.55;22.00;;;30.80;99.90;;;;;;5068085;28;20013;-72
2022/10/06 06:38:57;;;;;;;27.88;22.17;;;31.00;99.90;;;;;;5064530;28;20100;-71
2022/10/06 06:41:27;;;;;;;31.70;23.73;;;31.30;99.90;;;;;;5063877;28;20052;-72
2022/10/06 06:43:54;;;;;;;25.77;21.58;;;31.40;99.90;;;;;;5064207;28;20024;-72
2022/10/06 06:46:24;;;;;;;24.05;20.13;;;31.30;99.90;;;;;;5065772;28;20078;-71
2022/10/06 06:48:52;;;;;;;26.40;21.85;;;31.20;99.90;;;;;;5064190;28;20029;-71
2022/10/06 06:51:22;;;;;;;26.42;22.00;;;31.30;99.90;;;;;;5063487;28;20060;-70
2022/10/06 06:53:51;;;;;;;25.52;22.73;;;31.30;99.90;;;;;;5064846;28;20009;-71
2022/10/06 06:56:19;;;;;;;27.30;22.70;;;31.20;99.90;;;;;;5065242;28;20362;-71
2022/10/06 06:58:46;;;;;;;25.30;22.02;;;31.30;99.90;;;;;;5057923;28;20029;-70
2022/10/06 07:01:16;;;;;;;27.10;22.30;;;31.40;99.90;;;;;;5055894;28;20033;-72
2022/10/06 07:03:51;;;;;;;27.38;24.50;;;31.40;99.90;;;;;;5055716;28;20036;-72
2022/10/06 07:06:18;;;;;;;24.50;21.90;;;31.30;99.90;;;;;;5059931;28;20111;-71
2022/10/06 07:08:46;;;;;;;25.20;21.77;;;31.40;99.90;;;;;;5062930;28;20109;-71
2022/10/06 07:11:18;;;;;;;24.50;21.45;;;31.30;99.90;;;;;;5064595;28;20021;-70
2022/10/06 07:13:46;;;;;;;26.67;23.35;;;31.20;99.90;;;;;;5064959;28;20021;-71
2022/10/06 07:25:11;;;;;;;28.65;24.33;;;31.20;99.90;;;;;;4990971;28;20511;-72
2022/10/06 07:27:45;;;;;;;25.90;21.80;;;31.10;99.90;;;;;;4992267;28;20053;-70
2022/10/06 07:30:18;;;;;;;30.77;23.17;;;31.20;99.90;;;;;;4989940;28;20038;-71
2022/10/06 07:32:49;;;;;;;35.50;25.15;;;31.30;99.90;;;;;;4993003;28;20043;-71
2022/10/06 07:35:18;;;;;;;30.70;24.92;;;31.40;99.90;;;;;;4993848;28;20180;-71
2022/10/06 07:37:45;;;;;;;25.98;22.67;;;31.40;99.90;;;;;;4993353;28;20512;-70
2022/10/06 07:40:13;;;;;;;25.75;20.23;;;31.50;99.90;;;;;;4993726;28;20037;-70
2022/10/06 07:42:50;;;;;;;22.65;18.90;;;31.50;99.90;;;;;;4993672;28;20042;-72
2022/10/06 07:48:25;;;;;;;23.83;20.25;;;31.40;99.90;;;;;;4993614;28;20018;-69
2022/10/06 07:50:52;;;;;;;23.02;19.23;;;31.30;99.90;;;;;;4992637;28;20078;-71
2022/10/06 07:53:19;;;;;;;21.02;18.80;;;31.30;99.90;;;;;;4992663;28;20034;-70
2022/10/06 07:55:46;;;;;;;23.60;20.38;;;31.30;99.90;;;;;;4991785;28;20014;-70
2022/10/06 07:58:17;;;;;;;21.27;19.08;;;31.30;99.90;;;;;;4991739;28;20385;-69
2022/10/06 08:00:45;;;;;;;23.50;17.65;;;31.30;99.90;;;;;;4991566;28;20028;-71
2022/10/06 08:03:16;;;;;;;23.95;19.17;;;31.40;99.90;;;;;;4991720;28;20105;-74
2022/10/06 08:05:47;;;;;;;23.52;18.35;;;31.20;99.90;;;;;;4991643;28;20072;-72
2022/10/06 08:08:15;;;;;;;20.00;17.92;;;31.30;99.90;;;;;;4991654;28;20026;-70
2022/10/06 08:10:42;;;;;;;25.60;17.83;;;31.20;99.90;;;;;;4991475;28;20093;-70
2022/10/06 08:13:09;;;;;;;20.45;17.85;;;31.30;99.90;;;;;;4990356;28;20064;-70
2022/10/06 08:15:36;;;;;;;22.02;13.57;;;31.30;99.90;;;;;;4991377;28;20050;-72
2022/10/06 08:18:03;;;;;;;22.77;13.65;;;31.10;99.90;;;;;;4991498;28;20014;-70
2022/10/06 08:20:30;;;;;;;18.90;13.40;;;30.90;99.90;;;;;;5011784;28;20032;-70
2022/10/06 08:22:57;;;;;;;18.60;12.77;;;30.80;99.90;;;;;;5061291;28;20320;-71
2022/10/06 08:25:23;;;;;;;18.88;13.82;;;30.80;99.90;;;;;;5063784;28;20424;-70
2022/10/06 08:27:50;;;;;;;19.40;14.40;;;30.70;99.90;;;;;;5062126;28;20387;-71
2022/10/06 08:30:17;;;;;;;20.73;15.90;;;30.60;99.90;;;;;;5061975;28;20075;-71
2022/10/06 08:32:46;;;;;;;25.70;18.80;;;30.60;99.90;;;;;;5063663;28;20438;-69
2022/10/06 08:35:13;;;;;;;30.42;22.67;;;30.50;99.90;;;;;;5062420;28;20021;-71
2022/10/06 08:37:39;;;;;;;34.42;25.85;;;30.40;99.90;;;;;;5062012;28;20390;-70
2022/10/06 08:40:06;;;;;;;34.63;24.70;;;30.40;99.90;;;;;;5061612;28;20032;-70
2022/10/06 08:42:41;;;;;;;42.22;23.67;;;30.30;99.90;;;;;;5062370;28;20013;-70
2022/10/06 08:45:13;;;;;;;34.10;24.83;;;30.30;99.90;;;;;;5061350;28;20040;-70
2022/10/06 08:47:55;;;;;;;31.58;20.58;;;30.20;99.90;;;;;;5061388;28;20486;-70
2022/10/06 08:50:26;;;;;;;28.70;19.60;;;30.00;99.90;;;;;;5062181;28;20044;-69
2022/10/06 08:53:01;;;;;;;25.30;19.40;;;30.00;99.90;;;;;;5066042;28;20024;-70
2022/10/06 08:55:38;;;;;;;28.13;19.88;;;29.90;99.90;;;;;;5061459;28;20013;-70
2022/10/06 08:58:14;;;;;;;25.38;18.27;;;29.80;99.90;;;;;;5063975;28;20013;-69
2022/10/06 09:00:40;;;;;;;31.17;18.55;;;29.70;99.90;;;;;;5060885;28;20013;-69
2022/10/06 09:03:22;;;;;;;25.77;19.52;;;29.60;99.90;;;;;;5060576;28;20548;-74
2022/10/06 09:05:56;;;;;;;32.63;23.08;;;29.70;99.90;;;;;;5065209;28;20067;-70
2022/10/06 09:08:42;;;;;;;45.58;28.92;;;29.60;99.90;;;;;;5062310;28;20029;-72
2022/10/06 09:11:11;;;;;;;29.38;24.08;;;29.60;99.90;;;;;;5062734;28;20031;-69
2022/10/06 09:13:41;;;;;;;26.65;19.83;;;29.20;99.90;;;;;;5062644;28;20386;-65
2022/10/06 09:16:16;;;;;;;19.88;15.30;;;29.00;99.90;;;;;;5061803;28;20032;-66
2022/10/06 09:18:51;;;;;;;16.08;14.10;;;28.90;99.90;;;;;;5061975;28;20056;-66
2022/10/06 09:21:22;;;;;;;13.43;11.35;;;28.70;99.90;;;;;;5062469;28;20086;-66
2022/10/06 09:23:55;;;;;;;9.00;7.82;;;28.70;99.90;;;;;;5062588;28;20017;-66
2022/10/06 09:26:31;;;;;;;9.18;6.30;;;28.60;99.90;;;;;;5066454;28;20032;-67
2022/10/06 09:28:58;;;;;;;9.07;6.00;;;28.40;99.90;;;;;;5063919;28;20028;-66
2022/10/06 09:31:28;;;;;;;22.80;20.52;;;28.30;99.90;;;;;;5062795;28;20017;-67
2022/10/06 09:34:03;;;;;;;40.40;36.33;;;28.20;99.90;;;;;;5068180;28;20543;-67
2022/10/06 09:36:30;;;;;;;21.67;17.35;;;28.10;99.90;;;;;;5073724;28;20029;-67
2022/10/06 09:38:59;;;;;;;15.07;9.70;;;28.00;99.90;;;;;;5072737;28;20053;-67
2022/10/06 09:41:26;;;;;;;11.70;8.77;;;28.00;99.90;;;;;;5072939;28;20021;-66
2022/10/06 09:43:57;;;;;;;13.73;9.27;;;28.00;99.90;;;;;;5072618;28;20029;-66
2022/10/06 09:46:45;;;;;;;12.85;8.60;;;28.00;99.90;;;;;;5073049;28;20474;-68
2022/10/06 09:49:24;;;;;;;11.80;7.30;;;27.90;99.90;;;;;;5072790;28;20512;-66
2022/10/06 09:52:13;;;;;;;14.45;8.27;;;27.90;99.90;;;;;;5072870;28;20112;-66
2022/10/06 09:54:42;;;;;;;9.18;8.05;;;27.90;99.90;;;;;;5072944;28;20491;-67
2022/10/06 09:57:30;;;;;;;11.57;8.05;;;27.90;99.90;;;;;;5068456;28;20029;-68
2022/10/06 09:59:58;;;;;;;9.95;8.63;;;27.90;99.90;;;;;;5058636;28;20029;-67
2022/10/06 10:02:36;;;;;;;13.35;8.90;;;28.00;99.90;;;;;;5062317;28;20029;-66
2022/10/06 10:05:06;;;;;;;16.98;11.80;;;28.00;99.90;;;;;;5058253;28;20406;-69
2022/10/06 10:07:35;;;;;;;22.13;15.57;;;27.90;99.90;;;;;;5073688;28;20029;-72
2022/10/06 10:10:23;;;;;;;12.45;10.73;;;28.00;99.90;;;;;;5064790;28;20100;-73
2022/10/06 10:12:55;;;;;;;14.43;10.15;;;27.80;99.90;;;;;;5066007;28;20462;-73
2022/10/06 10:15:22;;;;;;;15.05;10.32;;;27.90;99.90;;;;;;5064446;28;20060;-72
2022/10/06 10:17:51;;;;;;;19.67;14.30;;;27.90;99.90;;;;;;5065941;28;20023;-72
2022/10/06 10:20:30;;;;;;;28.83;19.38;;;27.90;99.90;;;;;;5066595;28;20201;-71
2022/10/06 10:22:59;;;;;;;39.78;26.63;;;27.90;99.90;;;;;;5066598;28;20074;-73
2022/10/06 10:25:33;;;;;;;62.72;40.47;;;27.80;99.90;;;;;;5064073;28;20031;-73
2022/10/06 10:28:16;;;;;;;81.40;45.88;;;27.80;99.90;;;;;;5066023;28;20033;-71
2022/10/06 10:30:52;;;;;;;65.90;40.13;;;27.80;99.90;;;;;;5056174;28;20029;-73
2022/10/06 10:33:40;;;;;;;82.05;55.05;;;27.90;99.90;;;;;;5056410;28;20013;-73
2022/10/06 10:36:12;;;;;;;60.38;40.63;;;28.00;99.90;;;;;;5056292;28;20032;-72
2022/10/06 10:38:41;;;;;;;43.08;26.25;;;28.00;99.90;;;;;;5056357;28;20032;-74
2022/10/06 10:41:20;;;;;;;29.50;17.77;;;28.00;99.90;;;;;;5063006;28;20029;-76
2022/10/06 10:43:52;;;;;;;74.90;52.20;;;28.00;99.90;;;;;;5068085;28;20025;-74
2022/10/06 10:46:21;;;;;;;94.75;62.50;;;28.10;99.90;;;;;;5066884;28;20027;-74
2022/10/06 10:48:50;;;;;;;25.85;18.67;;;28.10;99.90;;;;;;5065419;28;20108;-73
2022/10/06 10:51:29;;;;;;;19.23;11.90;;;28.20;99.90;;;;;;5068077;28;20041;-67
2022/10/06 10:54:12;;;;;;;22.70;13.65;;;28.10;99.90;;;;;;5064114;28;20105;-68
2022/10/06 10:56:39;;;;;;;26.35;16.08;;;28.10;99.90;;;;;;5064935;28;20013;-71
2022/10/06 10:59:18;;;;;;;27.48;18.80;;;28.10;99.90;;;;;;5066650;28;20032;-67
2022/10/06 11:01:49;;;;;;;33.97;18.08;;;28.20;99.90;;;;;;5067057;28;20049;-68
2022/10/06 11:04:16;;;;;;;28.75;18.30;;;28.20;99.90;;;;;;5066054;28;20016;-68
2022/10/06 11:07:02;;;;;;;34.40;20.98;;;28.10;99.90;;;;;;5063308;28;20021;-68
2022/10/06 11:09:29;;;;;;;34.72;20.15;;;28.20;99.90;;;;;;5063248;28;20021;-67
2022/10/06 11:12:15;;;;;;;31.83;18.50;;;28.10;99.90;;;;;;5064620;28;20451;-68
2022/10/06 11:14:50;;;;;;;123.07;92.88;;;28.10;99.90;;;;;;5069813;28;20516;-72
2022/10/06 11:17:27;;;;;;;126.75;96.93;;;28.00;99.90;;;;;;5066607;28;20348;-72
2022/10/06 11:19:56;;;;;;;98.32;67.40;;;28.00;99.90;;;;;;5064830;28;20082;-68
2022/10/06 11:22:28;;;;;;;190.73;128.38;;;28.00;99.90;;;;;;5063641;28;20039;-68
2022/10/06 11:25:03;;;;;;;120.65;90.00;;;27.90;99.90;;;;;;5066134;28;20108;-65
2022/10/06 11:27:31;;;;;;;30.65;20.63;;;27.90;99.90;;;;;;5069308;28;20515;-66
2022/10/06 11:30:02;;;;;;;22.35;16.60;;;27.80;99.90;;;;;;5064184;28;20086;-68
2022/10/06 11:32:54;;;;;;;23.60;18.63;;;27.70;99.90;;;;;;5064985;28;20429;-68
2022/10/06 11:35:25;;;;;;;26.95;20.85;;;27.70;99.90;;;;;;5064541;28;20044;-66
2022/10/06 11:37:59;;;;;;;35.00;20.33;;;27.70;99.90;;;;;;5064114;28;20103;-66
2022/10/06 11:40:27;;;;;;;24.25;19.70;;;27.50;99.90;;;;;;5064231;28;20059;-67
2022/10/06 11:43:05;;;;;;;25.30;18.88;;;27.50;99.90;;;;;;5063862;28;20421;-68
2022/10/06 11:45:53;;;;;;;22.48;16.63;;;27.40;99.90;;;;;;5064530;28;20032;-69
2022/10/06 11:48:31;;;;;;;22.08;17.42;;;27.30;99.90;;;;;;5065308;28;20025;-68
2022/10/06 11:51:20;;;;;;;33.55;17.95;;;27.20;99.90;;;;;;5065111;28;20055;-68
2022/10/06 11:53:47;;;;;;;23.83;17.45;;;27.10;99.90;;;;;;4971317;28;20038;-67
2022/10/06 11:56:43;;;;;;;22.63;18.00;;;27.10;99.90;;;;;;4973511;28;20054;-67
2022/10/06 11:59:23;;;;;;;22.13;17.55;;;27.00;99.90;;;;;;4970400;28;20026;-67
2022/10/06 12:01:52;;;;;;;22.20;17.42;;;27.00;99.90;;;;;;4973676;28;20062;-66
2022/10/06 12:04:20;;;;;;;25.30;19.00;;;27.00;99.90;;;;;;4973491;28;20110;-66
2022/10/06 12:06:46;;;;;;;30.33;19.23;;;27.00;99.90;;;;;;4973340;28;20126;-67
2022/10/06 12:09:24;;;;;;;23.52;17.40;;;27.00;99.90;;;;;;4972993;28;20053;-69
2022/10/06 12:11:53;;;;;;;22.80;17.85;;;27.00;99.90;;;;;;4973148;28;20030;-67
2022/10/06 12:14:39;;;;;;;20.88;17.13;;;27.00;99.90;;;;;;4971975;28;20031;-73
2022/10/06 12:17:18;;;;;;;21.88;18.80;;;26.90;99.90;;;;;;4969356;28;20039;-71
2022/10/06 12:19:46;;;;;;;21.23;18.38;;;26.90;99.90;;;;;;4967121;28;20411;-69
2022/10/06 12:22:25;;;;;;;22.17;19.63;;;26.90;99.90;;;;;;4973935;28;20030;-69
2022/10/06 12:25:04;;;;;;;24.55;19.77;;;26.90;99.90;;;;;;5044535;28;20048;-69
2022/10/06 12:27:58;;;;;;;24.15;20.58;;;26.90;99.90;;;;;;5074603;28;20090;-70
2022/10/06 12:30:32;;;;;;;27.85;22.05;;;26.80;99.90;;;;;;5074421;28;20021;-69
2022/10/06 12:33:04;;;;;;;28.02;21.77;;;26.70;99.90;;;;;;5074485;28;20023;-70
2022/10/06 12:35:34;;;;;;;26.02;21.55;;;26.70;99.90;;;;;;5074759;28;20025;-70
2022/10/06 12:38:04;;;;;;;27.90;20.77;;;26.60;99.90;;;;;;5075074;28;20024;-69
2022/10/06 12:43:16;;;;;;;25.63;21.20;;;26.70;99.90;;;;;;5073911;28;20025;-70
2022/10/06 12:45:47;;;;;;;23.20;17.75;;;26.60;99.90;;;;;;5074124;28;20513;-70
2022/10/06 12:48:26;;;;;;;23.88;19.33;;;26.60;99.90;;;;;;5065590;28;20039;-71
2022/10/06 12:51:07;;;;;;;24.70;18.10;;;26.60;99.90;;;;;;5064083;28;20124;-70
2022/10/06 12:53:59;;;;;;;22.75;19.90;;;26.60;99.90;;;;;;5063168;28;20032;-68
2022/10/06 12:56:30;;;;;;;81.90;60.88;;;26.50;99.90;;;;;;4962696;28;20027;-69
2022/10/06 12:58:57;;;;;;;368.08;303.23;;;26.50;99.90;;;;;;4960830;28;20038;-70
2022/10/06 13:01:26;;;;;;;86.28;64.55;;;26.50;99.90;;;;;;4968542;28;20479;-68